Time;durP1;ratioP1;P1;durP2;ratioP2;P2;SDS_P1;SDS_P2;PMS_P1;PMS_P2;Temp;Humidity;BMP_temperature;BMP_pressure;BME280_temperature;BME280_humidity;BME280_pressure;Samples;Min_cycle;Max_cycle;Signal;HPM_P1;HPM_P2
2021/12/19 00:00:04;;;;;;;15.50;6.85;;;;;;;2.06;84.12;99740.13;5045953;28;20056;-68
2021/12/19 00:03:33;;;;;;;13.40;7.15;;;;;;;1.77;85.26;99717.38;5032604;28;20056;-68
2021/12/19 00:09:20;;;;;;;15.05;6.30;;;;;;;1.83;85.77;99727.59;5032021;28;20060;-67
2021/12/19 00:12:06;;;;;;;14.70;6.60;;;;;;;1.63;86.12;99733.09;5032944;28;20052;-69
2021/12/19 00:14:52;;;;;;;15.65;7.60;;;;;;;1.80;85.92;99731.09;5032701;28;20053;-68
2021/12/19 00:17:38;;;;;;;17.83;5.80;;;;;;;1.79;85.53;99718.19;5032700;28;20072;-69
2021/12/19 00:20:25;;;;;;;13.07;6.78;;;;;;;1.80;85.00;99701.81;5032791;28;20048;-68
2021/12/19 00:23:12;;;;;;;10.23;5.93;;;;;;;1.66;86.19;99721.00;5037188;28;20048;-69
2021/12/19 00:25:57;;;;;;;12.93;6.20;;;;;;;1.90;86.16;99715.44;5032566;28;20400;-69
2021/12/19 00:28:46;;;;;;;14.95;6.93;;;;;;;1.71;86.34;99708.84;5017535;28;20056;-69
2021/12/19 00:31:32;;;;;;;15.93;7.00;;;;;;;1.72;86.81;99700.22;5032524;28;20060;-69
2021/12/19 00:34:18;;;;;;;14.23;6.78;;;;;;;1.70;86.44;99701.09;5032235;28;20056;-69
2021/12/19 00:37:12;;;;;;;14.23;6.68;;;;;;;1.84;86.22;99696.56;5032474;28;20056;-69
2021/12/19 00:40:05;;;;;;;15.63;7.32;;;;;;;1.71;85.13;99684.75;5018582;28;20052;-68
2021/12/19 00:43:01;;;;;;;15.35;7.00;;;;;;;1.81;86.05;99708.69;5037033;28;20515;-69
2021/12/19 00:45:49;;;;;;;15.75;6.78;;;;;;;1.72;85.22;99691.59;5037285;28;20060;-67
2021/12/19 00:48:44;;;;;;;11.52;6.45;;;;;;;2.03;84.98;99701.41;5023228;28;20053;-69
2021/12/19 00:51:30;;;;;;;14.23;5.80;;;;;;;1.99;84.69;99697.19;5032353;28;20060;-69
2021/12/19 00:54:16;;;;;;;15.68;6.97;;;;;;;1.90;84.65;99689.56;5032208;28;20084;-68
2021/12/19 00:57:02;;;;;;;15.32;6.65;;;;;;;1.79;85.29;99677.72;5032145;28;20511;-69
2021/12/19 00:59:47;;;;;;;16.75;7.13;;;;;;;1.69;84.67;99660.66;5032739;28;20064;-68
2021/12/19 01:02:34;;;;;;;11.57;6.50;;;;;;;1.67;85.58;99663.28;5031964;28;20401;-67
2021/12/19 01:05:20;;;;;;;17.02;7.80;;;;;;;1.44;86.82;99650.75;5031993;28;20060;-68
2021/12/19 01:08:06;;;;;;;14.13;7.00;;;;;;;1.54;86.69;99659.19;5012916;28;20056;-69
2021/12/19 01:10:52;;;;;;;12.48;6.68;;;;;;;1.68;85.96;99651.22;5011220;28;20057;-68
2021/12/19 01:13:38;;;;;;;13.30;6.75;;;;;;;1.59;86.12;99634.13;4997478;28;20058;-68
2021/12/19 01:16:24;;;;;;;16.65;7.25;;;;;;;1.58;86.36;99635.03;4998793;28;20402;-68
2021/12/19 01:19:10;;;;;;;13.00;6.93;;;;;;;1.43;86.29;99646.47;5005278;28;20057;-69
2021/12/19 01:21:56;;;;;;;15.93;7.43;;;;;;;1.30;87.77;99631.19;4992662;28;20228;-68
2021/12/19 01:24:41;;;;;;;14.65;7.18;;;;;;;1.28;87.29;99629.47;4993670;28;20057;-68
2021/12/19 01:27:27;;;;;;;14.82;7.03;;;;;;;1.21;87.31;99611.50;4999302;28;20133;-68
2021/12/19 01:30:15;;;;;;;16.13;7.40;;;;;;;1.27;88.05;99633.81;4994766;28;20500;-68
2021/12/19 01:33:01;;;;;;;16.20;7.88;;;;;;;1.26;87.72;99624.34;4992190;28;20401;-69
2021/12/19 01:35:47;;;;;;;13.77;6.63;;;;;;;1.26;88.22;99624.34;4993079;28;20508;-68
2021/12/19 01:38:33;;;;;;;15.60;7.53;;;;;;;1.20;88.13;99616.72;4992458;28;20061;-69
2021/12/19 01:41:19;;;;;;;14.80;6.82;;;;;;;1.07;88.90;99590.25;4992776;28;20118;-69
2021/12/19 01:44:05;;;;;;;16.45;7.43;;;;;;;1.12;89.23;99622.00;4998732;28;20049;-67
2021/12/19 01:46:52;;;;;;;10.27;5.40;;;;;;;1.07;89.50;99631.53;4992436;28;20111;-70
2021/12/19 01:49:38;;;;;;;15.13;7.50;;;;;;;1.02;89.82;99621.28;5010968;28;20508;-68
2021/12/19 01:52:24;;;;;;;17.33;8.13;;;;;;;1.00;89.95;99624.78;5011689;28;20499;-68
2021/12/19 01:55:10;;;;;;;17.90;8.32;;;;;;;1.04;90.28;99616.97;5032048;28;20056;-69
2021/12/19 01:57:56;;;;;;;15.02;7.78;;;;;;;1.02;90.83;99610.09;5037235;28;20064;-68
2021/12/19 02:00:46;;;;;;;14.88;7.22;;;;;;;1.03;90.66;99611.81;5016920;28;20049;-68
2021/12/19 02:03:35;;;;;;;14.38;6.88;;;;;;;1.10;90.47;99611.69;5011737;28;20053;-68
2021/12/19 02:06:20;;;;;;;17.25;8.07;;;;;;;0.91;91.62;99610.28;5011515;28;20053;-68
2021/12/19 02:09:07;;;;;;;16.88;8.07;;;;;;;0.96;91.79;99595.59;5010852;28;20092;-68
2021/12/19 02:11:53;;;;;;;17.13;7.03;;;;;;;0.97;91.99;99576.63;5011621;28;20515;-69
2021/12/19 02:14:39;;;;;;;13.18;5.78;;;;;;;1.03;91.86;99591.19;5017430;28;20044;-68
2021/12/19 02:17:25;;;;;;;15.07;7.18;;;;;;;0.89;92.86;99584.50;5011298;28;20385;-68
2021/12/19 02:20:13;;;;;;;16.02;8.88;;;;;;;0.73;93.74;99589.88;5017355;28;20076;-68
2021/12/19 02:22:59;;;;;;;15.95;8.02;;;;;;;0.76;93.92;99570.06;5013781;28;20053;-67
2021/12/19 02:25:46;;;;;;;15.57;7.95;;;;;;;0.85;94.03;99591.44;5015015;28;20519;-69
2021/12/19 02:28:32;;;;;;;16.58;7.47;;;;;;;0.85;93.91;99604.31;5015077;28;20056;-68
2021/12/19 02:31:18;;;;;;;16.50;7.75;;;;;;;0.84;94.61;99602.63;5015343;28;20519;-69
2021/12/19 02:34:14;;;;;;;16.17;7.53;;;;;;;0.83;95.35;99584.59;5027980;28;20511;-67
2021/12/19 02:37:11;;;;;;;17.48;7.95;;;;;;;0.95;95.34;99606.75;5027309;28;20049;-68
2021/12/19 02:48:51;;;;;;;14.77;6.53;;;;;;;0.88;97.39;99587.97;5014215;28;20057;-69
2021/12/19 02:51:36;;;;;;;12.98;7.05;;;;;;;0.72;98.17;99567.53;5014426;28;20053;-69
2021/12/19 02:54:24;;;;;;;16.77;6.80;;;;;;;0.86;97.90;99576.81;5013997;28;20408;-69
2021/12/19 02:57:10;;;;;;;15.60;7.47;;;;;;;0.86;97.46;99582.78;5018934;28;20053;-69
2021/12/19 02:59:56;;;;;;;19.25;8.27;;;;;;;0.85;96.88;99568.19;5014466;28;20057;-68
2021/12/19 03:02:42;;;;;;;15.98;7.60;;;;;;;0.68;97.54;99557.28;5014387;28;20068;-68
2021/12/19 03:05:31;;;;;;;15.48;6.85;;;;;;;0.89;96.11;99563.84;5006583;28;20052;-68
2021/12/19 03:08:18;;;;;;;17.60;8.55;;;;;;;0.83;95.93;99558.78;5012922;28;20045;-67
2021/12/19 03:20:06;;;;;;;18.08;7.80;;;;;;;0.93;96.12;99562.09;5018950;28;20061;-69
2021/12/19 03:22:51;;;;;;;19.33;6.93;;;;;;;0.93;96.04;99549.19;5013801;28;20069;-69
2021/12/19 03:25:39;;;;;;;16.25;7.28;;;;;;;0.89;95.43;99532.03;5014103;28;20045;-67
2021/12/19 03:28:25;;;;;;;13.90;7.10;;;;;;;0.99;95.91;99541.34;5014242;28;20057;-68
2021/12/19 03:31:11;;;;;;;16.73;7.50;;;;;;;1.05;95.78;99525.75;5018304;28;20060;-69
2021/12/19 03:33:57;;;;;;;13.85;6.45;;;;;;;1.08;95.76;99524.81;5026368;28;20068;-67
2021/12/19 03:36:43;;;;;;;12.23;5.78;;;;;;;0.98;95.66;99526.72;5018513;28;20052;-67
2021/12/19 03:39:37;;;;;;;12.50;5.95;;;;;;;1.02;96.11;99501.69;5018323;28;20056;-67
2021/12/19 03:42:27;;;;;;;14.20;7.53;;;;;;;1.10;95.83;99507.59;5005830;28;20065;-67
2021/12/19 03:45:16;;;;;;;11.13;5.65;;;;;;;0.91;96.38;99497.59;5012888;28;20113;-67
2021/12/19 03:48:04;;;;;;;12.15;6.35;;;;;;;1.11;95.76;99498.94;5018333;28;20056;-67
2021/12/19 03:50:50;;;;;;;16.10;6.88;;;;;;;1.07;96.42;99513.66;5013084;28;20061;-69
2021/12/19 03:53:35;;;;;;;14.18;6.88;;;;;;;1.03;96.68;99499.09;5013423;28;20068;-68
2021/12/19 03:56:21;;;;;;;14.52;7.30;;;;;;;0.99;96.50;99494.88;5013709;28;20503;-67
2021/12/19 03:59:07;;;;;;;14.25;5.82;;;;;;;1.05;96.51;99491.31;5015569;28;20061;-67
2021/12/19 04:01:53;;;;;;;12.30;6.68;;;;;;;1.18;95.80;99502.28;5013180;28;20056;-67
2021/12/19 04:04:40;;;;;;;13.00;6.38;;;;;;;1.34;94.99;99500.25;5013286;28;20112;-69
2021/12/19 04:07:28;;;;;;;16.90;7.97;;;;;;;1.11;95.95;99498.94;5013121;28;20472;-68
2021/12/19 04:10:14;;;;;;;14.35;6.85;;;;;;;1.08;96.31;99505.03;5012993;28;20053;-67
2021/12/19 04:13:00;;;;;;;13.35;6.10;;;;;;;1.21;95.92;99508.25;5012837;28;20049;-68
2021/12/19 04:15:50;;;;;;;14.07;6.03;;;;;;;1.27;95.69;99502.13;5012659;28;20057;-68
2021/12/19 04:18:36;;;;;;;15.43;5.93;;;;;;;1.12;96.64;99505.84;5011730;28;20057;-70
2021/12/19 04:21:23;;;;;;;17.00;7.65;;;;;;;1.16;95.79;99488.56;5012648;28;20057;-68
2021/12/19 04:24:08;;;;;;;14.88;6.65;;;;;;;1.17;96.23;99485.97;5012533;28;20057;-66
2021/12/19 04:26:55;;;;;;;13.43;6.35;;;;;;;1.18;95.59;99479.03;5012424;28;20060;-69
2021/12/19 04:29:41;;;;;;;14.75;6.78;;;;;;;1.08;96.79;99494.72;5013023;28;20053;-68
2021/12/19 04:32:32;;;;;;;12.23;4.68;;;;;;;1.07;96.93;99474.09;5012624;28;20069;-68
2021/12/19 04:35:17;;;;;;;13.57;6.35;;;;;;;1.15;96.13;99481.69;5011364;28;20125;-67
2021/12/19 04:56:38;;;;;;;16.55;6.43;;;;;;;1.04;98.21;99388.97;5012617;28;20408;-68
2021/12/19 05:14:47;;;;;;;15.63;5.53;;;;;;;1.10;97.13;99329.47;4992448;28;20053;-68
2021/12/19 05:17:33;;;;;;;13.20;4.95;;;;;;;1.13;96.89;99342.31;4992356;28;20481;-68
2021/12/19 05:20:23;;;;;;;11.98;5.10;;;;;;;1.16;97.24;99344.00;4996547;28;20061;-68
2021/12/19 05:23:22;;;;;;;9.48;3.90;;;;;;;1.13;96.93;99323.44;5017568;28;20389;-67
2021/12/19 05:26:07;;;;;;;11.05;4.65;;;;;;;1.30;96.57;99330.81;5024724;28;20048;-68
2021/12/19 05:28:53;;;;;;;11.32;5.80;;;;;;;1.08;96.76;99310.59;5021910;28;20052;-69
2021/12/19 05:31:39;;;;;;;7.70;3.92;;;;;;;1.18;96.35;99306.94;5026433;28;20439;-68
2021/12/19 05:34:27;;;;;;;10.43;4.57;;;;;;;1.03;96.85;99312.44;5032123;28;20056;-69
2021/12/19 05:46:26;;;;;;;13.95;6.35;;;;;;;1.09;95.91;99282.16;5030298;28;20044;-68
2021/12/19 05:49:11;;;;;;;16.08;5.35;;;;;;;1.01;96.56;99286.66;5030928;28;20056;-67
2021/12/19 05:51:58;;;;;;;15.50;6.03;;;;;;;1.06;96.08;99259.00;5035202;28;20076;-68
2021/12/19 05:54:43;;;;;;;12.80;4.43;;;;;;;1.09;96.73;99277.00;5030817;28;20064;-68
2021/12/19 05:57:29;;;;;;;9.18;4.07;;;;;;;1.12;96.36;99264.94;5032567;28;20048;-68
2021/12/19 06:00:17;;;;;;;13.20;4.40;;;;;;;1.13;96.12;99275.22;5034676;28;20060;-70
2021/12/19 06:03:03;;;;;;;11.40;4.95;;;;;;;1.10;96.09;99258.06;5039547;28;20056;-69
2021/12/19 06:05:49;;;;;;;12.07;4.70;;;;;;;1.17;95.87;99261.38;5034933;28;20049;-68
2021/12/19 06:08:35;;;;;;;11.30;4.47;;;;;;;1.17;95.69;99263.09;5035241;28;20064;-69
2021/12/19 06:11:20;;;;;;;10.68;5.00;;;;;;;1.17;95.28;99260.53;5033773;28;20075;-68
2021/12/19 06:14:06;;;;;;;12.00;5.10;;;;;;;1.17;95.67;99278.59;5019177;28;20056;-67
2021/12/19 06:16:52;;;;;;;11.20;4.85;;;;;;;1.35;94.72;99292.84;5014740;28;20049;-67
2021/12/19 06:19:39;;;;;;;11.38;4.45;;;;;;;1.33;94.43;99259.31;5014045;28;20053;-67
2021/12/19 06:22:25;;;;;;;10.13;3.72;;;;;;;1.35;94.46;99270.41;5013720;28;20052;-68
2021/12/19 06:25:11;;;;;;;9.40;4.22;;;;;;;1.27;94.61;99277.50;5015056;28;20476;-68
2021/12/19 06:27:56;;;;;;;11.35;5.00;;;;;;;1.41;94.26;99277.19;5014439;28;20060;-69
2021/12/19 06:30:43;;;;;;;10.90;4.40;;;;;;;1.37;94.14;99274.72;5011628;28;20057;-68
2021/12/19 06:33:29;;;;;;;7.80;3.63;;;;;;;1.43;94.11;99292.66;5006500;28;20057;-73
2021/12/19 06:36:16;;;;;;;10.15;4.38;;;;;;;1.36;94.18;99281.59;5015554;28;20052;-71
2021/12/19 06:39:05;;;;;;;7.13;3.40;;;;;;;1.11;94.75;99251.16;4992196;28;20045;-64
2021/12/19 06:41:50;;;;;;;11.07;4.22;;;;;;;1.39;94.20;99294.44;5014916;28;20064;-67
2021/12/19 06:44:37;;;;;;;9.07;3.92;;;;;;;1.28;94.77;99299.00;5019222;28;20069;-69
2021/12/19 06:47:22;;;;;;;10.40;4.43;;;;;;;1.36;94.57;99294.53;5014394;28;20065;-70
2021/12/19 06:50:09;;;;;;;10.95;3.80;;;;;;;1.41;94.35;99289.25;5002248;28;20512;-68
2021/12/19 06:52:55;;;;;;;9.05;4.22;;;;;;;1.66;95.32;99280.94;4994410;28;20050;-68
2021/12/19 06:55:41;;;;;;;9.30;4.55;;;;;;;1.52;94.16;99300.19;4994898;28;20061;-70
2021/12/19 06:58:27;;;;;;;8.70;3.50;;;;;;;1.53;93.91;99296.75;5004728;28;20064;-69
2021/12/19 07:01:13;;;;;;;7.53;3.80;;;;;;;1.45;93.46;99280.56;5014163;28;20057;-70
2021/12/19 07:03:59;;;;;;;11.50;3.92;;;;;;;1.56;93.25;99299.25;5012609;28;20536;-68
2021/12/19 07:06:44;;;;;;;8.40;3.75;;;;;;;1.67;92.83;99314.50;5013363;28;20610;-66
2021/12/19 07:09:30;;;;;;;10.73;3.80;;;;;;;1.77;95.02;99304.78;5013799;28;20056;-42
2021/12/19 07:12:17;;;;;;;9.80;4.40;;;;;;;2.85;90.58;99298.63;5013733;28;20052;-59
2021/12/19 07:15:04;;;;;;;10.07;4.50;;;;;;;2.61;88.55;99301.00;5013729;28;20508;-59
2021/12/19 07:17:51;;;;;;;9.00;4.10;;;;;;;2.79;87.75;99294.47;5026077;28;20053;-59
2021/12/19 07:20:41;;;;;;;9.48;4.53;;;;;;;2.79;86.85;99291.88;5013402;28;20413;-59
2021/12/19 07:23:27;;;;;;;8.70;4.40;;;;;;;2.77;86.17;99286.75;5013790;28;20393;-59
2021/12/19 07:26:13;;;;;;;8.93;4.60;;;;;;;2.45;87.27;99245.34;5026246;28;20068;-58
2021/12/19 07:28:59;;;;;;;9.65;4.70;;;;;;;2.11;88.88;99273.81;5013598;28;20057;-59
2021/12/19 07:31:45;;;;;;;11.48;4.88;;;;;;;2.13;88.33;99254.81;4998075;28;20418;-60
2021/12/19 07:34:33;;;;;;;9.80;3.80;;;;;;;2.34;98.23;99261.16;5013221;28;20057;-61
2021/12/19 07:37:20;;;;;;;10.05;4.68;;;;;;;1.95;89.65;99250.97;5011713;28;20061;-60
2021/12/19 07:40:18;;;;;;;12.93;4.45;;;;;;;1.87;89.43;99256.31;5013166;28;20064;-59
2021/12/19 07:43:04;;;;;;;11.55;5.07;;;;;;;1.51;90.88;99249.44;5013442;28;20508;-58
2021/12/19 07:45:49;;;;;;;10.68;4.68;;;;;;;1.39;90.96;99242.81;5013497;28;20049;-60
2021/12/19 07:48:35;;;;;;;11.45;4.95;;;;;;;1.42;91.29;99240.16;5013337;28;20507;-60
2021/12/19 07:51:21;;;;;;;12.43;5.38;;;;;;;1.30;91.60;99227.53;5017657;28;20401;-60
2021/12/19 07:54:07;;;;;;;10.40;4.53;;;;;;;1.32;91.73;99242.09;5013315;28;20053;-59
2021/12/19 07:56:53;;;;;;;12.00;4.90;;;;;;;1.33;92.01;99238.63;5012343;28;20511;-60
2021/12/19 07:59:40;;;;;;;11.18;5.43;;;;;;;1.25;92.08;99226.78;5012867;28;20512;-59
2021/12/19 08:02:27;;;;;;;14.43;5.78;;;;;;;1.17;92.23;99226.97;5012831;28;20532;-58
2021/12/19 08:05:14;;;;;;;12.38;5.22;;;;;;;1.15;92.37;99218.38;5014565;28;20049;-59
2021/12/19 08:08:04;;;;;;;13.48;5.65;;;;;;;1.22;91.79;99207.06;5012376;28;20060;-59
2021/12/19 08:13:35;;;;;;;13.60;4.80;;;;;;;1.14;92.17;99202.06;5012733;28;20082;-62
2021/12/19 08:16:20;;;;;;;12.63;4.63;;;;;;;1.02;92.34;99192.88;5016978;28;20053;-59
2021/12/19 08:19:08;;;;;;;17.60;6.45;;;;;;;0.91;92.75;99197.41;5030304;28;20567;-61
2021/12/19 08:21:54;;;;;;;15.73;5.68;;;;;;;1.00;92.80;99189.47;5011703;28;20053;-60
2021/12/19 08:24:41;;;;;;;14.40;5.70;;;;;;;0.98;93.56;99191.22;5012675;28;20057;-60
2021/12/19 08:27:27;;;;;;;12.20;5.43;;;;;;;1.65;100.00;99189.66;5011592;28;20060;-60
2021/12/19 08:30:14;;;;;;;12.55;5.22;;;;;;;1.32;92.47;99187.88;5017413;28;20143;-60
2021/12/19 08:33:00;;;;;;;11.93;5.15;;;;;;;1.04;93.33;99167.03;5010107;28;20061;-61
2021/12/19 08:35:46;;;;;;;11.63;5.00;;;;;;;0.95;92.69;99165.50;5030678;28;20060;-60
2021/12/19 08:38:32;;;;;;;14.05;5.05;;;;;;;1.09;92.28;99176.34;5032114;28;20057;-61
2021/12/19 08:41:18;;;;;;;14.05;4.63;;;;;;;1.20;91.91;99165.78;5031894;28;20072;-62
2021/12/19 08:44:04;;;;;;;12.18;4.93;;;;;;;1.29;91.04;99151.78;5036873;28;20105;-61
2021/12/19 08:46:50;;;;;;;11.98;4.70;;;;;;;1.87;87.51;99145.22;5031929;28;20052;-61
2021/12/19 08:49:36;;;;;;;12.02;5.35;;;;;;;1.73;88.08;99148.13;5031641;28;20052;-60
2021/12/19 08:52:21;;;;;;;13.73;4.88;;;;;;;1.62;88.25;99147.59;5050792;28;20056;-60
2021/12/19 08:55:08;;;;;;;12.20;5.20;;;;;;;1.66;87.69;99147.47;5030094;28;20052;-61
2021/12/19 08:57:56;;;;;;;11.38;4.45;;;;;;;1.55;88.51;99145.13;5031822;28;20049;-60
2021/12/19 09:00:42;;;;;;;13.75;4.45;;;;;;;2.79;99.93;99134.03;5022852;28;20076;-50
2021/12/19 09:03:30;;;;;;;11.18;4.38;;;;;;;3.14;87.85;99128.63;5031323;28;20052;-61
2021/12/19 09:06:15;;;;;;;12.15;5.28;;;;;;;2.63;84.28;99125.88;5031884;28;20495;-62
2021/12/19 09:09:04;;;;;;;11.15;4.88;;;;;;;2.58;82.95;99098.38;5032178;28;20056;-61
2021/12/19 09:11:49;;;;;;;8.77;4.50;;;;;;;3.04;84.49;99131.50;5031823;28;20072;-61
2021/12/19 09:14:35;;;;;;;12.82;4.55;;;;;;;3.63;78.97;99126.16;5012495;28;20076;-63
2021/12/19 09:17:21;;;;;;;9.38;4.30;;;;;;;3.51;79.28;99134.34;5012089;28;20045;-60
2021/12/19 09:20:08;;;;;;;10.20;4.97;;;;;;;3.50;78.75;99112.78;5011903;28;20125;-60
2021/12/19 09:22:54;;;;;;;9.07;4.57;;;;;;;3.85;76.45;99093.47;5010886;28;20060;-62
2021/12/19 09:25:40;;;;;;;10.90;4.90;;;;;;;3.71;76.94;99089.59;5022394;28;20048;-62
2021/12/19 09:28:26;;;;;;;11.05;5.05;;;;;;;3.90;76.21;99089.78;5020005;28;20069;-59
2021/12/19 09:31:12;;;;;;;10.20;4.47;;;;;;;4.05;75.67;99088.41;5023621;28;20500;-59
2021/12/19 09:33:59;;;;;;;9.68;4.13;;;;;;;4.00;75.46;99059.19;5015686;28;20052;-60
2021/12/19 09:36:44;;;;;;;9.10;4.90;;;;;;;3.85;75.91;99049.41;5022671;28;20052;-60
2021/12/19 09:39:32;;;;;;;8.88;4.38;;;;;;;3.98;75.03;99060.16;5011485;28;20049;-59
2021/12/19 09:42:20;;;;;;;9.68;4.43;;;;;;;4.02;75.19;99043.56;5024530;28;20057;-60
2021/12/19 09:45:06;;;;;;;10.93;4.75;;;;;;;3.88;75.91;99094.22;5022639;28;20057;-59
2021/12/19 09:47:52;;;;;;;8.15;4.72;;;;;;;3.95;75.37;99055.91;5015901;28;20052;-60
2021/12/19 09:50:37;;;;;;;7.57;3.45;;;;;;;4.71;74.34;99061.75;5022303;28;20060;-60
2021/12/19 09:53:23;;;;;;;8.85;4.47;;;;;;;4.63;72.48;99054.28;5025776;28;20048;-58
2021/12/19 09:56:12;;;;;;;7.97;3.85;;;;;;;4.42;73.60;99054.22;5016301;28;20048;-55
2021/12/19 09:58:57;;;;;;;5.93;3.35;;;;;;;4.64;73.22;99043.81;5022494;28;20049;-59
2021/12/19 10:01:43;;;;;;;7.07;3.92;;;;;;;4.38;72.89;99034.47;5017927;28;20049;-59
2021/12/19 10:04:37;;;;;;;8.43;4.32;;;;;;;4.51;72.90;99033.09;5010996;28;20060;-62
2021/12/19 10:07:29;;;;;;;7.28;3.60;;;;;;;4.54;73.16;99029.50;5030298;28;20053;-59
2021/12/19 10:10:24;;;;;;;7.55;3.97;;;;;;;4.68;72.51;99000.44;5034929;28;20044;-60
2021/12/19 10:13:10;;;;;;;8.95;3.65;;;;;;;5.12;70.08;99022.88;5026085;28;20428;-60
2021/12/19 10:15:56;;;;;;;6.40;3.15;;;;;;;5.04;70.55;99025.78;5014479;28;20056;-61
2021/12/19 10:18:53;;;;;;;7.00;4.07;;;;;;;4.75;70.77;98988.06;5014036;28;20068;-59
2021/12/19 10:21:39;;;;;;;6.40;3.53;;;;;;;4.68;70.31;98985.69;5014218;28;20429;-60
2021/12/19 10:24:29;;;;;;;6.60;3.17;;;;;;;4.71;70.64;99009.84;5013885;28;20100;-59
2021/12/19 10:27:37;;;;;;;6.75;3.47;;;;;;;5.29;68.58;99001.38;5013860;28;20400;-63
2021/12/19 10:30:33;;;;;;;6.97;3.63;;;;;;;5.61;67.50;98990.50;5019951;28;20053;-61
2021/12/19 10:33:22;;;;;;;7.90;3.47;;;;;;;5.17;68.76;99007.09;5012611;28;20425;-64
2021/12/19 10:36:09;;;;;;;5.78;2.75;;;;;;;5.62;67.50;98999.97;5013733;28;20057;-59
2021/12/19 10:38:58;;;;;;;6.45;2.85;;;;;;;6.15;65.86;99012.41;5018750;28;20057;-60
2021/12/19 10:41:55;;;;;;;5.03;2.50;;;;;;;5.85;66.48;98999.84;5013647;28;20056;-61
2021/12/19 10:47:50;;;;;;;5.25;2.92;;;;;;;5.53;67.61;98984.78;5014051;28;20076;-60
2021/12/19 10:50:54;;;;;;;5.25;2.75;;;;;;;4.90;70.09;98981.38;5006877;28;20072;-60
2021/12/19 10:53:49;;;;;;;6.55;2.97;;;;;;;4.31;72.44;98967.25;5013485;28;20052;-60
2021/12/19 10:56:37;;;;;;;7.05;3.22;;;;;;;4.31;78.44;98981.97;5013614;28;20060;-60
2021/12/19 10:59:23;;;;;;;6.75;3.20;;;;;;;4.00;75.10;98978.81;5013516;28;20061;-58
2021/12/19 11:02:09;;;;;;;6.00;2.83;;;;;;;4.08;77.27;98975.91;5014106;28;20057;-59
2021/12/19 11:04:54;;;;;;;5.85;2.95;;;;;;;3.90;75.92;98951.56;5014137;28;20516;-60
2021/12/19 11:08:00;;;;;;;8.40;3.17;;;;;;;3.97;76.00;98931.41;5014243;28;20068;-60
2021/12/19 11:10:46;;;;;;;5.75;2.78;;;;;;;3.68;76.85;98947.19;5014076;28;20472;-60
2021/12/19 11:13:32;;;;;;;5.68;3.22;;;;;;;3.28;78.49;98931.34;5011681;28;20053;-59
2021/12/19 11:16:18;;;;;;;7.80;3.67;;;;;;;3.19;79.49;98942.88;5013413;28;20057;-63
2021/12/19 11:19:04;;;;;;;7.13;3.75;;;;;;;3.60;77.60;98950.06;5013615;28;20061;-59
2021/12/19 11:21:51;;;;;;;6.13;3.10;;;;;;;3.54;78.15;98921.78;5012761;28;20048;-58
2021/12/19 11:24:39;;;;;;;6.85;3.10;;;;;;;3.33;78.66;98906.97;5003915;28;20072;-59
2021/12/19 11:27:32;;;;;;;4.32;2.50;;;;;;;3.35;78.71;98908.66;5013118;28;20405;-58
2021/12/19 11:30:18;;;;;;;4.55;2.35;;;;;;;3.61;77.41;98925.81;5013253;28;20053;-62
2021/12/19 11:33:16;;;;;;;4.05;2.40;;;;;;;4.34;75.19;98942.09;5013417;28;20048;-61
2021/12/19 11:36:02;;;;;;;5.45;2.92;;;;;;;4.46;74.26;98920.00;5012577;28;20397;-59
2021/12/19 11:38:49;;;;;;;5.72;2.88;;;;;;;3.95;75.77;98921.09;5016264;28;20060;-61
2021/12/19 11:41:35;;;;;;;5.82;2.70;;;;;;;3.45;77.65;98908.28;5020851;28;20400;-60
2021/12/19 11:47:55;;;;;;;5.82;2.78;;;;;;;3.76;76.12;98915.78;5027167;28;20431;-60
2021/12/19 11:50:51;;;;;;;6.10;2.50;;;;;;;3.87;75.67;98915.41;5032875;28;20511;-59
2021/12/19 11:53:41;;;;;;;4.60;2.40;;;;;;;3.70;77.29;98914.28;5031887;28;20045;-55
2021/12/19 11:56:27;;;;;;;5.43;2.55;;;;;;;3.85;77.89;98932.75;5025284;28;20404;-58
2021/12/19 11:59:20;;;;;;;4.05;2.03;;;;;;;3.37;77.54;98910.28;5014338;28;20068;-61
2021/12/19 12:02:25;;;;;;;5.30;2.03;;;;;;;3.39;78.76;98892.97;5011600;28;20048;-57
2021/12/19 12:05:14;;;;;;;4.75;2.17;;;;;;;3.33;78.67;98888.84;5027697;28;20048;-59
2021/12/19 12:08:06;;;;;;;5.18;2.10;;;;;;;3.15;78.81;98880.00;5021202;28;20056;-52
2021/12/19 12:11:15;;;;;;;5.05;2.03;;;;;;;3.17;79.22;98914.44;5020715;28;20392;-60
2021/12/19 12:14:21;;;;;;;3.80;1.85;;;;;;;3.14;80.14;98906.78;5030816;28;20061;-57
2021/12/19 12:17:21;;;;;;;6.57;1.92;;;;;;;3.04;80.66;98916.63;5018127;28;20048;-56
2021/12/19 12:20:18;;;;;;;3.58;2.00;;;;;;;3.00;80.71;98891.75;5016330;28;20045;-56
2021/12/19 12:23:08;;;;;;;4.18;2.20;;;;;;;2.95;80.66;98891.91;5011258;28;20113;-55
2021/12/19 12:25:54;;;;;;;4.30;2.58;;;;;;;2.94;81.65;98868.66;5024091;28;20052;-57
2021/12/19 12:28:40;;;;;;;4.60;2.13;;;;;;;2.73;81.75;98881.47;5032128;28;20068;-60
2021/12/19 12:31:27;;;;;;;5.18;2.38;;;;;;;2.91;81.67;98886.88;5027723;28;20488;-61
2021/12/19 12:34:16;;;;;;;3.40;2.05;;;;;;;2.79;81.72;98839.00;5025750;28;20048;-61
2021/12/19 12:37:01;;;;;;;4.30;2.35;;;;;;;2.77;82.13;98880.47;5030241;28;20297;-60
2021/12/19 12:39:47;;;;;;;5.57;2.15;;;;;;;2.81;82.15;98879.44;5043119;28;20056;-60
2021/12/19 12:42:57;;;;;;;6.45;2.97;;;;;;;2.70;82.51;98855.69;5020150;28;20404;-59
2021/12/19 12:46:06;;;;;;;4.53;2.33;;;;;;;2.71;83.41;98865.97;5024979;28;20056;-60
2021/12/19 12:49:00;;;;;;;6.20;1.98;;;;;;;2.74;83.07;98874.53;5031491;28;20392;-62
2021/12/19 12:51:48;;;;;;;4.18;2.13;;;;;;;2.81;82.93;98869.09;5030406;28;20413;-59
2021/12/19 12:54:38;;;;;;;3.45;1.90;;;;;;;2.79;83.62;98867.47;5024761;28;20052;-57
2021/12/19 12:57:28;;;;;;;4.18;2.40;;;;;;;2.68;83.60;98841.94;5037548;28;20507;-57
2021/12/19 13:00:19;;;;;;;4.20;1.92;;;;;;;2.71;83.86;98860.81;5025448;28;20499;-56
2021/12/19 13:03:28;;;;;;;4.07;2.15;;;;;;;2.67;84.42;98848.88;5027791;28;20056;-54
2021/12/19 13:06:14;;;;;;;3.72;2.08;;;;;;;2.71;84.37;98834.94;5012576;28;20068;-61
2021/12/19 13:09:08;;;;;;;5.40;2.15;;;;;;;2.68;84.74;98862.66;5014506;28;20404;-54
2021/12/19 13:12:06;;;;;;;5.40;2.40;;;;;;;2.66;84.86;98867.88;5027047;28;20083;-54
2021/12/19 13:14:55;;;;;;;3.55;1.42;;;;;;;2.83;86.17;98869.91;5026555;28;20040;-55
2021/12/19 13:17:42;;;;;;;4.25;2.13;;;;;;;2.74;84.26;98843.50;5027846;28;20060;-49
2021/12/19 13:20:31;;;;;;;4.53;2.03;;;;;;;2.85;84.35;98856.06;5025588;28;20072;-51
2021/12/19 13:23:16;;;;;;;6.30;1.88;;;;;;;2.88;84.81;98845.59;5029342;28;20044;-49
2021/12/19 13:26:02;;;;;;;5.15;2.75;;;;;;;2.83;84.52;98851.78;5025960;28;20481;-50
2021/12/19 13:28:48;;;;;;;5.78;2.35;;;;;;;2.76;84.59;98833.94;5020391;28;20056;-54
2021/12/19 13:31:34;;;;;;;4.28;2.35;;;;;;;2.82;84.51;98847.47;5001060;28;20057;-54
2021/12/19 13:34:20;;;;;;;3.72;2.03;;;;;;;2.95;84.57;98839.31;5017185;28;20400;-51
2021/12/19 13:37:06;;;;;;;4.10;2.17;;;;;;;2.82;84.58;98824.19;5024691;28;20499;-55
2021/12/19 13:39:59;;;;;;;3.80;2.33;;;;;;;2.82;85.15;98820.78;5031730;28;20057;-59
2021/12/19 13:42:51;;;;;;;4.43;1.98;;;;;;;2.93;87.51;98841.09;5030741;28;20404;-54
2021/12/19 13:45:43;;;;;;;;;;;;;;;2.90;85.51;98838.63;5032196;28;20060;-60
2021/12/19 13:48:35;;;;;;;3.38;1.85;;;;;;;2.93;85.66;98831.59;5031317;28;19913;-53
2021/12/19 13:51:27;;;;;;;4.43;1.92;;;;;;;2.72;86.10;98833.19;5036386;28;20408;-53
2021/12/19 13:54:12;;;;;;;2.95;1.85;;;;;;;2.72;86.14;98828.03;5031397;28;20044;-54
2021/12/19 13:56:58;;;;;;;4.00;2.00;;;;;;;3.03;87.80;98821.75;5031529;28;20507;-53
2021/12/19 13:59:45;;;;;;;3.88;2.08;;;;;;;3.16;84.66;98849.78;5031061;28;20061;-51
2021/12/19 14:02:40;;;;;;;4.82;2.10;;;;;;;3.49;85.57;98823.53;5028020;28;20045;-58
2021/12/19 14:05:29;;;;;;;3.92;1.85;;;;;;;3.37;83.56;98829.16;5027034;28;20405;-55
2021/12/19 14:08:16;;;;;;;3.75;1.80;;;;;;;3.19;85.17;98811.66;5031451;28;20057;-56
2021/12/19 14:11:08;;;;;;;4.45;2.20;;;;;;;3.41;83.95;98826.38;5030194;28;20060;-59
2021/12/19 14:14:00;;;;;;;4.55;1.45;;;;;;;3.34;84.09;98830.13;5022550;28;20508;-58
2021/12/19 14:16:47;;;;;;;5.03;1.63;;;;;;;3.28;83.64;98832.94;5011499;28;20056;-57
2021/12/19 14:19:42;;;;;;;2.92;1.77;;;;;;;3.33;85.26;98824.09;4999457;28;20508;-60
2021/12/19 14:22:28;;;;;;;3.88;1.77;;;;;;;3.38;84.21;98846.41;5027977;28;20057;-59
2021/12/19 14:25:14;;;;;;;1.95;1.23;;;;;;;3.30;85.20;98828.53;5029382;28;20052;-57
2021/12/19 14:28:30;;;;;;;2.92;1.80;;;;;;;3.17;84.63;98812.63;5028901;28;20064;-58